Waco's Hourly Summary for Tuesday, March 7, 2017
Hour Temp
(f)
RH
(%)
Solar Rad.
(MJ/m2)
Rainfall
(in)
Wind
(mph)
3/7/2017 12:00 AM 71 80 0 0 7.48
3/7/2017 1:00 AM 70 82 0 0 8.15
3/7/2017 2:00 AM 70 82 0 0 8.09
3/7/2017 3:00 AM 69 83 0 0 5.6
3/7/2017 4:00 AM 69 83 0 0 6
3/7/2017 5:00 AM 69 83 0 0 4.51
3/7/2017 6:00 AM 68 84 0 0 3.45
3/7/2017 7:00 AM 67 84 0.01 0 3.16
3/7/2017 8:00 AM 64 70 0.13 0 6.28
3/7/2017 9:00 AM 55 42 0.33 0 12.99
3/7/2017 10:00 AM 57 39 0.85 0 12.65
3/7/2017 11:00 AM 58 29 1.13 0 14.89
3/7/2017 12:00 PM 60 27 1.47 0 12.97
3/7/2017 1:00 PM 61 24 1.77 0 13.52
3/7/2017 2:00 PM 62 24 1.35 0 11.67
3/7/2017 3:00 PM 64 26 1.28 0 9.28
3/7/2017 4:00 PM 66 21 1.06 0 8.68
3/7/2017 5:00 PM 67 20 0.92 0 9.27
3/7/2017 6:00 PM 65 21 0.48 0 8.56
3/7/2017 7:00 PM 62 21 0.04 0 4.68
3/7/2017 8:00 PM 57 32 0 0 0.76
3/7/2017 9:00 PM 57 31 0 0 2.2
3/7/2017 10:00 PM 57 31 0 0 2.93
3/7/2017 11:00 PM 54 32 0 0 1.02
Data Summary 63 47 10.82 0.00 7.45